sensor_id;sensor_type;location;lat;lon;timestamp;P1;durP1;ratioP1;P2;durP2;ratioP2
56999;SDS011;42891;50.006;21.964;2022-11-09T00:01:48;22.57;;;13.13;;
56999;SDS011;42891;50.006;21.964;2022-11-09T00:05:55;21.07;;;13.00;;
56999;SDS011;42891;50.006;21.964;2022-11-09T00:09:56;19.85;;;12.48;;
56999;SDS011;42891;50.006;21.964;2022-11-09T00:13:56;26.48;;;13.02;;
56999;SDS011;42891;50.006;21.964;2022-11-09T00:17:58;18.97;;;13.40;;
56999;SDS011;42891;50.006;21.964;2022-11-09T00:21:59;19.23;;;12.30;;
56999;SDS011;42891;50.006;21.964;2022-11-09T00:26:00;20.07;;;12.63;;
56999;SDS011;42891;50.006;21.964;2022-11-09T00:30:01;20.27;;;12.98;;
56999;SDS011;42891;50.006;21.964;2022-11-09T00:34:02;18.98;;;11.75;;
56999;SDS011;42891;50.006;21.964;2022-11-09T00:38:02;19.17;;;12.20;;
56999;SDS011;42891;50.006;21.964;2022-11-09T00:42:02;19.30;;;12.30;;
56999;SDS011;42891;50.006;21.964;2022-11-09T00:46:03;18.92;;;12.38;;
56999;SDS011;42891;50.006;21.964;2022-11-09T00:50:04;19.65;;;11.57;;
56999;SDS011;42891;50.006;21.964;2022-11-09T00:54:04;18.45;;;12.18;;
56999;SDS011;42891;50.006;21.964;2022-11-09T00:58:07;17.05;;;11.80;;
56999;SDS011;42891;50.006;21.964;2022-11-09T01:02:07;20.80;;;13.00;;
56999;SDS011;42891;50.006;21.964;2022-11-09T01:06:07;16.97;;;11.63;;
56999;SDS011;42891;50.006;21.964;2022-11-09T01:10:08;18.77;;;11.80;;
56999;SDS011;42891;50.006;21.964;2022-11-09T01:14:09;18.27;;;12.00;;
56999;SDS011;42891;50.006;21.964;2022-11-09T01:18:09;18.25;;;12.23;;
56999;SDS011;42891;50.006;21.964;2022-11-09T01:22:11;19.70;;;12.32;;
56999;SDS011;42891;50.006;21.964;2022-11-09T01:26:12;19.65;;;12.05;;
56999;SDS011;42891;50.006;21.964;2022-11-09T01:30:13;19.77;;;11.70;;
56999;SDS011;42891;50.006;21.964;2022-11-09T01:34:14;18.13;;;11.00;;
56999;SDS011;42891;50.006;21.964;2022-11-09T01:38:16;22.48;;;12.75;;
56999;SDS011;42891;50.006;21.964;2022-11-09T01:42:21;19.60;;;11.93;;
56999;SDS011;42891;50.006;21.964;2022-11-09T01:46:23;20.05;;;12.38;;
56999;SDS011;42891;50.006;21.964;2022-11-09T01:51:06;20.58;;;11.88;;
56999;SDS011;42891;50.006;21.964;2022-11-09T01:55:03;20.55;;;12.48;;
56999;SDS011;42891;50.006;21.964;2022-11-09T01:59:14;19.27;;;11.93;;
56999;SDS011;42891;50.006;21.964;2022-11-09T02:03:30;21.08;;;12.88;;
56999;SDS011;42891;50.006;21.964;2022-11-09T02:07:34;19.90;;;12.48;;
56999;SDS011;42891;50.006;21.964;2022-11-09T02:11:36;18.35;;;11.95;;
56999;SDS011;42891;50.006;21.964;2022-11-09T02:15:37;20.17;;;12.68;;
56999;SDS011;42891;50.006;21.964;2022-11-09T02:19:37;21.08;;;12.02;;
56999;SDS011;42891;50.006;21.964;2022-11-09T02:23:37;19.37;;;11.73;;
56999;SDS011;42891;50.006;21.964;2022-11-09T02:27:38;19.55;;;11.75;;
56999;SDS011;42891;50.006;21.964;2022-11-09T02:31:40;17.48;;;11.93;;
56999;SDS011;42891;50.006;21.964;2022-11-09T02:35:45;20.17;;;12.00;;
56999;SDS011;42891;50.006;21.964;2022-11-09T02:39:45;18.13;;;11.15;;
56999;SDS011;42891;50.006;21.964;2022-11-09T02:43:45;19.90;;;12.27;;
56999;SDS011;42891;50.006;21.964;2022-11-09T02:47:46;17.95;;;11.38;;
56999;SDS011;42891;50.006;21.964;2022-11-09T02:51:46;20.52;;;12.07;;
56999;SDS011;42891;50.006;21.964;2022-11-09T02:55:47;21.52;;;12.32;;
56999;SDS011;42891;50.006;21.964;2022-11-09T02:59:47;19.23;;;12.47;;
56999;SDS011;42891;50.006;21.964;2022-11-09T03:03:47;18.70;;;12.20;;
56999;SDS011;42891;50.006;21.964;2022-11-09T03:07:47;18.38;;;11.00;;
56999;SDS011;42891;50.006;21.964;2022-11-09T03:11:48;18.67;;;11.52;;
56999;SDS011;42891;50.006;21.964;2022-11-09T03:15:49;20.88;;;12.35;;
56999;SDS011;42891;50.006;21.964;2022-11-09T03:19:49;20.97;;;12.47;;
56999;SDS011;42891;50.006;21.964;2022-11-09T03:23:50;18.08;;;10.93;;
56999;SDS011;42891;50.006;21.964;2022-11-09T03:27:55;19.90;;;10.82;;
56999;SDS011;42891;50.006;21.964;2022-11-09T03:31:56;18.35;;;10.75;;
56999;SDS011;42891;50.006;21.964;2022-11-09T03:35:56;18.30;;;10.55;;
56999;SDS011;42891;50.006;21.964;2022-11-09T03:39:57;18.17;;;11.00;;
56999;SDS011;42891;50.006;21.964;2022-11-09T03:43:57;18.45;;;10.45;;
56999;SDS011;42891;50.006;21.964;2022-11-09T03:47:57;18.23;;;11.10;;
56999;SDS011;42891;50.006;21.964;2022-11-09T03:51:59;17.95;;;10.70;;
56999;SDS011;42891;50.006;21.964;2022-11-09T03:55:59;16.50;;;10.32;;
56999;SDS011;42891;50.006;21.964;2022-11-09T04:00:00;18.40;;;11.00;;
56999;SDS011;42891;50.006;21.964;2022-11-09T04:04:00;17.00;;;10.68;;
56999;SDS011;42891;50.006;21.964;2022-11-09T04:08:00;16.88;;;10.20;;
56999;SDS011;42891;50.006;21.964;2022-11-09T04:12:01;20.15;;;10.20;;
56999;SDS011;42891;50.006;21.964;2022-11-09T04:16:01;14.35;;;9.25;;
56999;SDS011;42891;50.006;21.964;2022-11-09T04:20:02;16.40;;;9.70;;
56999;SDS011;42891;50.006;21.964;2022-11-09T04:24:02;16.60;;;9.02;;
56999;SDS011;42891;50.006;21.964;2022-11-09T04:28:03;15.18;;;9.82;;
56999;SDS011;42891;50.006;21.964;2022-11-09T04:32:05;17.77;;;10.20;;
56999;SDS011;42891;50.006;21.964;2022-11-09T04:36:05;16.63;;;9.77;;
56999;SDS011;42891;50.006;21.964;2022-11-09T04:40:06;18.60;;;10.70;;
56999;SDS011;42891;50.006;21.964;2022-11-09T04:44:07;16.83;;;10.50;;
56999;SDS011;42891;50.006;21.964;2022-11-09T04:48:08;14.40;;;9.10;;
56999;SDS011;42891;50.006;21.964;2022-11-09T04:52:09;15.85;;;9.05;;
56999;SDS011;42891;50.006;21.964;2022-11-09T04:56:10;13.20;;;8.90;;
56999;SDS011;42891;50.006;21.964;2022-11-09T05:00:11;13.45;;;8.80;;
56999;SDS011;42891;50.006;21.964;2022-11-09T05:04:11;14.07;;;9.25;;
56999;SDS011;42891;50.006;21.964;2022-11-09T05:08:12;16.30;;;10.20;;
56999;SDS011;42891;50.006;21.964;2022-11-09T05:12:12;20.25;;;11.00;;
56999;SDS011;42891;50.006;21.964;2022-11-09T05:16:12;17.70;;;10.10;;
56999;SDS011;42891;50.006;21.964;2022-11-09T05:20:13;19.10;;;10.93;;
56999;SDS011;42891;50.006;21.964;2022-11-09T05:24:14;14.63;;;9.27;;
56999;SDS011;42891;50.006;21.964;2022-11-09T05:28:14;17.00;;;9.50;;
56999;SDS011;42891;50.006;21.964;2022-11-09T05:32:14;14.23;;;8.88;;
56999;SDS011;42891;50.006;21.964;2022-11-09T05:36:15;14.68;;;8.75;;
56999;SDS011;42891;50.006;21.964;2022-11-09T05:40:16;13.93;;;8.82;;
56999;SDS011;42891;50.006;21.964;2022-11-09T05:44:18;12.85;;;8.45;;
56999;SDS011;42891;50.006;21.964;2022-11-09T05:48:18;14.13;;;8.48;;
56999;SDS011;42891;50.006;21.964;2022-11-09T05:52:18;11.50;;;7.80;;
56999;SDS011;42891;50.006;21.964;2022-11-09T05:56:19;11.90;;;7.13;;
56999;SDS011;42891;50.006;21.964;2022-11-09T06:00:19;14.63;;;7.47;;
56999;SDS011;42891;50.006;21.964;2022-11-09T06:04:20;13.48;;;7.28;;
56999;SDS011;42891;50.006;21.964;2022-11-09T06:08:20;11.38;;;6.82;;
56999;SDS011;42891;50.006;21.964;2022-11-09T06:12:20;10.53;;;6.87;;
56999;SDS011;42891;50.006;21.964;2022-11-09T06:16:21;10.77;;;6.97;;
56999;SDS011;42891;50.006;21.964;2022-11-09T06:20:21;11.07;;;7.15;;
56999;SDS011;42891;50.006;21.964;2022-11-09T06:24:22;12.27;;;6.93;;
56999;SDS011;42891;50.006;21.964;2022-11-09T06:28:23;9.50;;;6.67;;
56999;SDS011;42891;50.006;21.964;2022-11-09T06:32:23;13.55;;;7.45;;
56999;SDS011;42891;50.006;21.964;2022-11-09T06:36:24;12.88;;;7.45;;
56999;SDS011;42891;50.006;21.964;2022-11-09T06:40:24;13.55;;;7.30;;
56999;SDS011;42891;50.006;21.964;2022-11-09T06:44:25;10.85;;;6.82;;
56999;SDS011;42891;50.006;21.964;2022-11-09T06:48:25;10.83;;;7.03;;
56999;SDS011;42891;50.006;21.964;2022-11-09T06:52:25;10.30;;;6.30;;
56999;SDS011;42891;50.006;21.964;2022-11-09T06:56:25;10.27;;;6.97;;
56999;SDS011;42891;50.006;21.964;2022-11-09T07:00:26;11.30;;;6.90;;
56999;SDS011;42891;50.006;21.964;2022-11-09T07:04:26;11.05;;;7.40;;
56999;SDS011;42891;50.006;21.964;2022-11-09T07:08:27;13.30;;;7.45;;
56999;SDS011;42891;50.006;21.964;2022-11-09T07:12:27;10.43;;;6.30;;
56999;SDS011;42891;50.006;21.964;2022-11-09T07:16:28;11.15;;;6.85;;
56999;SDS011;42891;50.006;21.964;2022-11-09T07:20:29;10.18;;;6.80;;
56999;SDS011;42891;50.006;21.964;2022-11-09T07:24:30;11.02;;;7.40;;
56999;SDS011;42891;50.006;21.964;2022-11-09T07:28:30;10.83;;;6.97;;
56999;SDS011;42891;50.006;21.964;2022-11-09T07:32:34;9.70;;;6.53;;
56999;SDS011;42891;50.006;21.964;2022-11-09T07:36:35;9.40;;;6.75;;
56999;SDS011;42891;50.006;21.964;2022-11-09T07:40:38;9.95;;;6.82;;
56999;SDS011;42891;50.006;21.964;2022-11-09T07:44:39;9.45;;;6.38;;
56999;SDS011;42891;50.006;21.964;2022-11-09T07:48:40;9.15;;;6.32;;
56999;SDS011;42891;50.006;21.964;2022-11-09T07:52:40;12.10;;;6.37;;
56999;SDS011;42891;50.006;21.964;2022-11-09T07:56:40;11.23;;;6.80;;
56999;SDS011;42891;50.006;21.964;2022-11-09T08:00:41;10.37;;;5.60;;
56999;SDS011;42891;50.006;21.964;2022-11-09T08:04:42;8.95;;;5.70;;
56999;SDS011;42891;50.006;21.964;2022-11-09T08:08:42;9.88;;;5.50;;
56999;SDS011;42891;50.006;21.964;2022-11-09T08:12:42;8.37;;;5.63;;
56999;SDS011;42891;50.006;21.964;2022-11-09T08:16:43;9.50;;;5.20;;
56999;SDS011;42891;50.006;21.964;2022-11-09T08:20:43;7.70;;;4.78;;
56999;SDS011;42891;50.006;21.964;2022-11-09T08:24:44;7.53;;;5.13;;
56999;SDS011;42891;50.006;21.964;2022-11-09T08:28:44;9.17;;;5.30;;
56999;SDS011;42891;50.006;21.964;2022-11-09T08:32:44;7.00;;;4.77;;
56999;SDS011;42891;50.006;21.964;2022-11-09T08:36:46;7.68;;;5.18;;
56999;SDS011;42891;50.006;21.964;2022-11-09T08:40:46;6.43;;;4.63;;
56999;SDS011;42891;50.006;21.964;2022-11-09T08:44:47;8.32;;;5.47;;
56999;SDS011;42891;50.006;21.964;2022-11-09T08:48:47;8.37;;;5.33;;
56999;SDS011;42891;50.006;21.964;2022-11-09T08:52:47;11.20;;;5.47;;
56999;SDS011;42891;50.006;21.964;2022-11-09T08:56:47;7.87;;;4.87;;
56999;SDS011;42891;50.006;21.964;2022-11-09T09:00:48;6.87;;;5.10;;
56999;SDS011;42891;50.006;21.964;2022-11-09T09:04:48;6.93;;;5.10;;
56999;SDS011;42891;50.006;21.964;2022-11-09T09:08:48;7.53;;;5.57;;
56999;SDS011;42891;50.006;21.964;2022-11-09T09:12:48;8.47;;;5.43;;
56999;SDS011;42891;50.006;21.964;2022-11-09T09:16:49;6.73;;;5.10;;
56999;SDS011;42891;50.006;21.964;2022-11-09T09:20:49;9.52;;;5.72;;
56999;SDS011;42891;50.006;21.964;2022-11-09T09:24:50;9.25;;;5.60;;
56999;SDS011;42891;50.006;21.964;2022-11-09T09:28:50;8.60;;;6.03;;
56999;SDS011;42891;50.006;21.964;2022-11-09T09:32:51;8.68;;;6.10;;
56999;SDS011;42891;50.006;21.964;2022-11-09T09:36:51;8.33;;;5.70;;
56999;SDS011;42891;50.006;21.964;2022-11-09T09:40:59;9.07;;;6.32;;
56999;SDS011;42891;50.006;21.964;2022-11-09T09:45:09;7.63;;;5.72;;
56999;SDS011;42891;50.006;21.964;2022-11-09T09:49:18;7.47;;;5.68;;
56999;SDS011;42891;50.006;21.964;2022-11-09T09:57:36;8.25;;;5.53;;
56999;SDS011;42891;50.006;21.964;2022-11-09T10:01:40;6.97;;;5.32;;
56999;SDS011;42891;50.006;21.964;2022-11-09T10:05:54;8.48;;;5.75;;
56999;SDS011;42891;50.006;21.964;2022-11-09T10:10:25;7.65;;;5.72;;
56999;SDS011;42891;50.006;21.964;2022-11-09T10:31:52;8.32;;;6.07;;
56999;SDS011;42891;50.006;21.964;2022-11-09T10:36:00;8.15;;;5.90;;
56999;SDS011;42891;50.006;21.964;2022-11-09T10:44:22;10.02;;;7.00;;
56999;SDS011;42891;50.006;21.964;2022-11-09T10:48:35;10.13;;;6.75;;
56999;SDS011;42891;50.006;21.964;2022-11-09T10:52:38;9.38;;;6.82;;
56999;SDS011;42891;50.006;21.964;2022-11-09T10:56:44;9.57;;;6.97;;
56999;SDS011;42891;50.006;21.964;2022-11-09T11:00:53;8.95;;;6.45;;
56999;SDS011;42891;50.006;21.964;2022-11-09T11:17:19;12.57;;;8.13;;
56999;SDS011;42891;50.006;21.964;2022-11-09T11:21:22;12.90;;;8.18;;
56999;SDS011;42891;50.006;21.964;2022-11-09T11:25:24;10.07;;;7.18;;
56999;SDS011;42891;50.006;21.964;2022-11-09T11:33:35;14.00;;;7.72;;
56999;SDS011;42891;50.006;21.964;2022-11-09T11:37:44;9.83;;;7.33;;
56999;SDS011;42891;50.006;21.964;2022-11-09T11:46:52;12.30;;;8.32;;
56999;SDS011;42891;50.006;21.964;2022-11-09T12:00:13;13.45;;;8.85;;
56999;SDS011;42891;50.006;21.964;2022-11-09T12:04:39;12.13;;;8.55;;
56999;SDS011;42891;50.006;21.964;2022-11-09T12:09:01;12.55;;;8.68;;
56999;SDS011;42891;50.006;21.964;2022-11-09T12:17:29;12.70;;;9.15;;
56999;SDS011;42891;50.006;21.964;2022-11-09T12:21:45;15.40;;;9.95;;
56999;SDS011;42891;50.006;21.964;2022-11-09T12:30:22;13.90;;;9.65;;
56999;SDS011;42891;50.006;21.964;2022-11-09T12:34:28;13.37;;;9.60;;
56999;SDS011;42891;50.006;21.964;2022-11-09T12:38:49;14.38;;;9.77;;
56999;SDS011;42891;50.006;21.964;2022-11-09T12:47:21;13.57;;;9.10;;
56999;SDS011;42891;50.006;21.964;2022-11-09T12:51:23;13.48;;;8.93;;
56999;SDS011;42891;50.006;21.964;2022-11-09T12:59:49;12.80;;;9.63;;
56999;SDS011;42891;50.006;21.964;2022-11-09T13:03:53;13.02;;;9.43;;
56999;SDS011;42891;50.006;21.964;2022-11-09T13:07:58;13.32;;;8.30;;
56999;SDS011;42891;50.006;21.964;2022-11-09T13:11:59;13.20;;;9.45;;
56999;SDS011;42891;50.006;21.964;2022-11-09T13:41:40;13.60;;;10.57;;
56999;SDS011;42891;50.006;21.964;2022-11-09T13:45:52;13.13;;;9.85;;
56999;SDS011;42891;50.006;21.964;2022-11-09T13:49:55;12.85;;;9.15;;
56999;SDS011;42891;50.006;21.964;2022-11-09T13:53:57;21.70;;;12.75;;
56999;SDS011;42891;50.006;21.964;2022-11-09T13:58:08;17.80;;;11.55;;
56999;SDS011;42891;50.006;21.964;2022-11-09T14:02:21;16.42;;;10.65;;
56999;SDS011;42891;50.006;21.964;2022-11-09T14:06:23;13.52;;;10.38;;
56999;SDS011;42891;50.006;21.964;2022-11-09T14:23:18;27.10;;;15.38;;
56999;SDS011;42891;50.006;21.964;2022-11-09T14:27:20;23.23;;;14.20;;
56999;SDS011;42891;50.006;21.964;2022-11-09T14:31:29;21.55;;;12.35;;
56999;SDS011;42891;50.006;21.964;2022-11-09T14:35:31;18.50;;;11.95;;
56999;SDS011;42891;50.006;21.964;2022-11-09T14:39:32;19.65;;;13.05;;
56999;SDS011;42891;50.006;21.964;2022-11-09T14:43:41;21.70;;;14.00;;
56999;SDS011;42891;50.006;21.964;2022-11-09T14:47:43;23.40;;;14.10;;
56999;SDS011;42891;50.006;21.964;2022-11-09T14:51:45;22.23;;;13.68;;
56999;SDS011;42891;50.006;21.964;2022-11-09T14:55:47;23.10;;;13.35;;
56999;SDS011;42891;50.006;21.964;2022-11-09T14:59:49;18.15;;;11.30;;
56999;SDS011;42891;50.006;21.964;2022-11-09T15:08:19;18.85;;;11.77;;
56999;SDS011;42891;50.006;21.964;2022-11-09T15:12:21;18.70;;;12.77;;
56999;SDS011;42891;50.006;21.964;2022-11-09T15:16:23;23.73;;;13.13;;
56999;SDS011;42891;50.006;21.964;2022-11-09T15:20:28;21.48;;;13.98;;
56999;SDS011;42891;50.006;21.964;2022-11-09T15:24:43;29.30;;;17.40;;
56999;SDS011;42891;50.006;21.964;2022-11-09T15:28:46;23.75;;;14.48;;
56999;SDS011;42891;50.006;21.964;2022-11-09T15:32:47;24.38;;;17.10;;
56999;SDS011;42891;50.006;21.964;2022-11-09T15:36:52;22.30;;;15.15;;
56999;SDS011;42891;50.006;21.964;2022-11-09T15:40:53;22.15;;;14.63;;
56999;SDS011;42891;50.006;21.964;2022-11-09T15:44:55;22.30;;;15.00;;
56999;SDS011;42891;50.006;21.964;2022-11-09T15:49:12;26.80;;;13.57;;
56999;SDS011;42891;50.006;21.964;2022-11-09T15:53:15;24.10;;;15.40;;
56999;SDS011;42891;50.006;21.964;2022-11-09T15:57:16;34.40;;;22.08;;
56999;SDS011;42891;50.006;21.964;2022-11-09T16:01:18;27.33;;;16.92;;
56999;SDS011;42891;50.006;21.964;2022-11-09T16:05:18;25.33;;;16.73;;
56999;SDS011;42891;50.006;21.964;2022-11-09T16:09:18;23.38;;;14.65;;
56999;SDS011;42891;50.006;21.964;2022-11-09T16:13:19;29.15;;;17.95;;
56999;SDS011;42891;50.006;21.964;2022-11-09T16:17:19;26.33;;;16.92;;
56999;SDS011;42891;50.006;21.964;2022-11-09T16:21:19;29.23;;;18.48;;
56999;SDS011;42891;50.006;21.964;2022-11-09T16:25:20;35.40;;;21.27;;
56999;SDS011;42891;50.006;21.964;2022-11-09T16:29:21;32.22;;;20.10;;
56999;SDS011;42891;50.006;21.964;2022-11-09T16:33:24;33.10;;;19.88;;
56999;SDS011;42891;50.006;21.964;2022-11-09T16:37:25;30.03;;;19.70;;
56999;SDS011;42891;50.006;21.964;2022-11-09T16:41:28;34.22;;;22.23;;
56999;SDS011;42891;50.006;21.964;2022-11-09T16:45:29;44.33;;;30.08;;
56999;SDS011;42891;50.006;21.964;2022-11-09T16:49:30;44.78;;;28.75;;
56999;SDS011;42891;50.006;21.964;2022-11-09T16:53:30;37.88;;;23.02;;
56999;SDS011;42891;50.006;21.964;2022-11-09T16:57:31;37.97;;;25.00;;
56999;SDS011;42891;50.006;21.964;2022-11-09T17:01:31;26.40;;;18.20;;
56999;SDS011;42891;50.006;21.964;2022-11-09T17:05:31;31.03;;;19.17;;
56999;SDS011;42891;50.006;21.964;2022-11-09T17:09:32;30.38;;;19.38;;
56999;SDS011;42891;50.006;21.964;2022-11-09T17:13:33;28.35;;;17.70;;
56999;SDS011;42891;50.006;21.964;2022-11-09T17:17:33;29.00;;;19.27;;
56999;SDS011;42891;50.006;21.964;2022-11-09T17:21:33;32.83;;;19.90;;
56999;SDS011;42891;50.006;21.964;2022-11-09T17:25:34;31.80;;;20.47;;
56999;SDS011;42891;50.006;21.964;2022-11-09T17:29:34;26.48;;;18.33;;
56999;SDS011;42891;50.006;21.964;2022-11-09T17:33:36;35.58;;;23.75;;
56999;SDS011;42891;50.006;21.964;2022-11-09T17:37:37;35.90;;;23.83;;
56999;SDS011;42891;50.006;21.964;2022-11-09T17:41:37;33.47;;;21.23;;
56999;SDS011;42891;50.006;21.964;2022-11-09T17:45:37;38.75;;;24.30;;
56999;SDS011;42891;50.006;21.964;2022-11-09T17:49:37;41.03;;;23.83;;
56999;SDS011;42891;50.006;21.964;2022-11-09T17:53:38;39.83;;;23.50;;
56999;SDS011;42891;50.006;21.964;2022-11-09T17:57:39;29.58;;;18.73;;
56999;SDS011;42891;50.006;21.964;2022-11-09T18:01:39;35.00;;;20.60;;
56999;SDS011;42891;50.006;21.964;2022-11-09T18:05:40;33.78;;;21.25;;
56999;SDS011;42891;50.006;21.964;2022-11-09T18:09:41;29.35;;;18.73;;
56999;SDS011;42891;50.006;21.964;2022-11-09T18:13:42;33.97;;;21.53;;
56999;SDS011;42891;50.006;21.964;2022-11-09T18:17:43;49.28;;;32.15;;
56999;SDS011;42891;50.006;21.964;2022-11-09T18:21:43;33.87;;;21.50;;
56999;SDS011;42891;50.006;21.964;2022-11-09T18:25:53;33.55;;;20.50;;
56999;SDS011;42891;50.006;21.964;2022-11-09T18:29:54;55.83;;;31.95;;
56999;SDS011;42891;50.006;21.964;2022-11-09T18:33:55;33.72;;;19.77;;
56999;SDS011;42891;50.006;21.964;2022-11-09T18:37:55;30.58;;;19.33;;
56999;SDS011;42891;50.006;21.964;2022-11-09T18:41:56;33.22;;;20.48;;
56999;SDS011;42891;50.006;21.964;2022-11-09T18:46:00;32.28;;;19.55;;
56999;SDS011;42891;50.006;21.964;2022-11-09T18:50:03;32.90;;;20.42;;
56999;SDS011;42891;50.006;21.964;2022-11-09T18:54:03;31.98;;;20.00;;
56999;SDS011;42891;50.006;21.964;2022-11-09T18:58:04;41.47;;;24.65;;
56999;SDS011;42891;50.006;21.964;2022-11-09T19:02:04;38.05;;;24.30;;
56999;SDS011;42891;50.006;21.964;2022-11-09T19:06:12;38.95;;;23.20;;
56999;SDS011;42891;50.006;21.964;2022-11-09T19:10:16;46.55;;;29.77;;
56999;SDS011;42891;50.006;21.964;2022-11-09T19:14:16;31.98;;;20.13;;
56999;SDS011;42891;50.006;21.964;2022-11-09T19:18:16;36.20;;;22.23;;
56999;SDS011;42891;50.006;21.964;2022-11-09T19:22:17;35.43;;;22.20;;
56999;SDS011;42891;50.006;21.964;2022-11-09T19:26:18;38.92;;;25.30;;
56999;SDS011;42891;50.006;21.964;2022-11-09T19:30:19;41.08;;;23.60;;
56999;SDS011;42891;50.006;21.964;2022-11-09T19:34:19;35.50;;;22.30;;
56999;SDS011;42891;50.006;21.964;2022-11-09T19:38:20;38.20;;;21.55;;
56999;SDS011;42891;50.006;21.964;2022-11-09T19:42:21;32.00;;;19.07;;
56999;SDS011;42891;50.006;21.964;2022-11-09T19:46:21;34.95;;;21.17;;
56999;SDS011;42891;50.006;21.964;2022-11-09T19:50:21;34.28;;;21.98;;
56999;SDS011;42891;50.006;21.964;2022-11-09T19:54:22;33.70;;;21.33;;
56999;SDS011;42891;50.006;21.964;2022-11-09T19:58:22;37.00;;;22.00;;
56999;SDS011;42891;50.006;21.964;2022-11-09T20:02:22;49.97;;;31.65;;
56999;SDS011;42891;50.006;21.964;2022-11-09T20:06:23;43.10;;;26.92;;
56999;SDS011;42891;50.006;21.964;2022-11-09T20:10:24;45.28;;;30.10;;
56999;SDS011;42891;50.006;21.964;2022-11-09T20:14:24;51.38;;;32.85;;
56999;SDS011;42891;50.006;21.964;2022-11-09T20:18:25;68.17;;;42.60;;
56999;SDS011;42891;50.006;21.964;2022-11-09T20:22:25;52.63;;;32.33;;
56999;SDS011;42891;50.006;21.964;2022-11-09T20:26:25;104.00;;;62.77;;
56999;SDS011;42891;50.006;21.964;2022-11-09T20:30:25;47.92;;;31.80;;
56999;SDS011;42891;50.006;21.964;2022-11-09T20:34:26;36.37;;;23.67;;
56999;SDS011;42891;50.006;21.964;2022-11-09T20:38:28;36.00;;;23.23;;
56999;SDS011;42891;50.006;21.964;2022-11-09T20:42:28;38.38;;;26.40;;
56999;SDS011;42891;50.006;21.964;2022-11-09T20:46:29;32.57;;;22.03;;
56999;SDS011;42891;50.006;21.964;2022-11-09T20:50:29;28.27;;;18.05;;
56999;SDS011;42891;50.006;21.964;2022-11-09T20:54:29;37.07;;;22.77;;
56999;SDS011;42891;50.006;21.964;2022-11-09T20:58:30;32.13;;;21.03;;
56999;SDS011;42891;50.006;21.964;2022-11-09T21:02:30;35.03;;;19.65;;
56999;SDS011;42891;50.006;21.964;2022-11-09T21:06:30;44.43;;;32.87;;
56999;SDS011;42891;50.006;21.964;2022-11-09T21:10:30;35.33;;;23.07;;
56999;SDS011;42891;50.006;21.964;2022-11-09T21:14:31;33.33;;;24.23;;
56999;SDS011;42891;50.006;21.964;2022-11-09T21:18:31;30.23;;;20.08;;
56999;SDS011;42891;50.006;21.964;2022-11-09T21:22:32;27.90;;;19.02;;
56999;SDS011;42891;50.006;21.964;2022-11-09T21:26:51;53.38;;;36.53;;
56999;SDS011;42891;50.006;21.964;2022-11-09T21:31:10;63.65;;;42.25;;
56999;SDS011;42891;50.006;21.964;2022-11-09T21:35:11;41.70;;;27.60;;
56999;SDS011;42891;50.006;21.964;2022-11-09T21:39:11;31.67;;;19.83;;
56999;SDS011;42891;50.006;21.964;2022-11-09T21:43:11;27.70;;;20.70;;
56999;SDS011;42891;50.006;21.964;2022-11-09T21:47:11;32.73;;;21.53;;
56999;SDS011;42891;50.006;21.964;2022-11-09T21:51:12;33.78;;;21.20;;
56999;SDS011;42891;50.006;21.964;2022-11-09T21:55:12;29.40;;;19.75;;
56999;SDS011;42891;50.006;21.964;2022-11-09T21:59:12;31.40;;;20.70;;
56999;SDS011;42891;50.006;21.964;2022-11-09T22:03:13;33.13;;;20.70;;
56999;SDS011;42891;50.006;21.964;2022-11-09T22:07:13;30.77;;;19.80;;
56999;SDS011;42891;50.006;21.964;2022-11-09T22:11:14;33.03;;;20.27;;
56999;SDS011;42891;50.006;21.964;2022-11-09T22:15:16;32.75;;;20.65;;
56999;SDS011;42891;50.006;21.964;2022-11-09T22:19:36;29.23;;;19.77;;
56999;SDS011;42891;50.006;21.964;2022-11-09T22:23:57;29.35;;;19.38;;
56999;SDS011;42891;50.006;21.964;2022-11-09T22:27:58;28.25;;;19.02;;
56999;SDS011;42891;50.006;21.964;2022-11-09T22:31:58;28.13;;;19.27;;
56999;SDS011;42891;50.006;21.964;2022-11-09T22:35:59;28.70;;;19.67;;
56999;SDS011;42891;50.006;21.964;2022-11-09T22:40:01;25.88;;;17.85;;
56999;SDS011;42891;50.006;21.964;2022-11-09T22:44:02;27.13;;;18.45;;
56999;SDS011;42891;50.006;21.964;2022-11-09T22:48:02;27.30;;;18.67;;
56999;SDS011;42891;50.006;21.964;2022-11-09T22:52:03;35.40;;;22.90;;
56999;SDS011;42891;50.006;21.964;2022-11-09T22:56:04;95.18;;;52.95;;
56999;SDS011;42891;50.006;21.964;2022-11-09T23:00:04;138.60;;;73.57;;
56999;SDS011;42891;50.006;21.964;2022-11-09T23:04:07;44.92;;;27.13;;
56999;SDS011;42891;50.006;21.964;2022-11-09T23:08:08;30.13;;;19.75;;
56999;SDS011;42891;50.006;21.964;2022-11-09T23:12:08;31.90;;;19.83;;
56999;SDS011;42891;50.006;21.964;2022-11-09T23:16:10;32.47;;;21.70;;
56999;SDS011;42891;50.006;21.964;2022-11-09T23:20:10;32.88;;;20.27;;
56999;SDS011;42891;50.006;21.964;2022-11-09T23:24:11;30.70;;;19.57;;
56999;SDS011;42891;50.006;21.964;2022-11-09T23:28:31;31.35;;;18.98;;
56999;SDS011;42891;50.006;21.964;2022-11-09T23:32:32;28.98;;;18.65;;
56999;SDS011;42891;50.006;21.964;2022-11-09T23:36:32;31.93;;;20.47;;
56999;SDS011;42891;50.006;21.964;2022-11-09T23:40:33;27.95;;;18.88;;
56999;SDS011;42891;50.006;21.964;2022-11-09T23:44:34;29.80;;;17.98;;
56999;SDS011;42891;50.006;21.964;2022-11-09T23:48:34;31.20;;;19.53;;
56999;SDS011;42891;50.006;21.964;2022-11-09T23:52:35;31.85;;;20.30;;
56999;SDS011;42891;50.006;21.964;2022-11-09T23:56:35;26.43;;;17.90;;
